createdAt,value
2019-04-03T00:02:10.257Z,23.67
2019-04-03T00:07:06.187Z,22.30
2019-04-03T00:12:02.316Z,21.90
2019-04-03T00:16:58.364Z,21.83
2019-04-03T00:21:54.237Z,21.00
2019-04-03T00:26:51.867Z,25.10
2019-04-03T00:31:48.892Z,29.87
2019-04-03T00:36:44.821Z,18.47
2019-04-03T00:41:40.744Z,21.60
2019-04-03T00:46:36.668Z,22.07
2019-04-03T00:51:32.591Z,17.60
2019-04-03T00:56:28.594Z,24.37
2019-04-03T01:01:26.154Z,17.50
2019-04-03T01:06:22.350Z,21.47
2019-04-03T01:11:18.270Z,17.40
2019-04-03T01:16:14.288Z,15.20
2019-04-03T01:21:10.220Z,15.60
2019-04-03T01:26:06.249Z,14.73
2019-04-03T01:31:02.371Z,20.50
2019-04-03T01:35:58.342Z,15.57
2019-04-03T01:40:54.265Z,15.70
2019-04-03T01:45:50.300Z,16.53
2019-04-03T01:50:46.326Z,13.97
2019-04-03T01:55:42.437Z,17.13
2019-04-03T02:00:38.823Z,16.47
2019-04-03T02:05:34.811Z,17.27
2019-04-03T02:10:30.920Z,14.73
2019-04-03T02:15:27.166Z,17.20
2019-04-03T02:20:26.119Z,14.30
2019-04-03T02:25:22.105Z,17.23
2019-04-03T02:30:18.236Z,18.90
2019-04-03T02:35:14.258Z,18.30
2019-04-03T02:40:10.390Z,19.27
2019-04-03T02:45:06.618Z,15.43
2019-04-03T02:50:03.845Z,20.50
2019-04-03T02:55:00.426Z,19.60
2019-04-03T02:59:58.782Z,17.50
2019-04-03T03:04:55.258Z,22.13
2019-04-03T03:09:51.864Z,16.30
2019-04-03T03:14:48.220Z,19.17
2019-04-03T03:19:44.911Z,16.67
2019-04-03T03:24:42.806Z,19.57
2019-04-03T03:29:39.381Z,14.60
2019-04-03T03:34:51.776Z,17.80
2019-04-03T03:39:33.917Z,15.67
2019-04-03T03:44:30.065Z,20.03
2019-04-03T03:49:26.976Z,22.07
2019-04-03T03:54:26.279Z,16.87
2019-04-03T03:59:23.145Z,20.20
2019-04-03T04:04:19.442Z,21.20
2019-04-03T04:09:17.449Z,20.10
2019-04-03T04:14:13.502Z,16.63
2019-04-03T04:19:09.956Z,22.83
2019-04-03T04:24:13.467Z,20.50
2019-04-03T04:29:10.736Z,20.10
2019-04-03T04:34:07.372Z,20.93
2019-04-03T04:39:06.602Z,16.33
2019-04-03T04:44:02.929Z,20.30
2019-04-03T04:48:58.854Z,21.33
2019-04-03T04:53:54.812Z,20.63
2019-04-03T04:58:50.755Z,27.43
2019-04-03T05:03:46.687Z,24.83
2019-04-03T05:08:42.752Z,24.33
2019-04-03T05:13:38.678Z,20.30
2019-04-03T05:18:34.610Z,23.07
2019-04-03T05:23:30.541Z,23.17
2019-04-03T05:28:26.472Z,24.53
2019-04-03T05:33:22.429Z,30.80
2019-04-03T05:38:18.363Z,25.27
2019-04-03T05:43:14.284Z,26.57
2019-04-03T05:48:12.594Z,20.57
2019-04-03T05:53:08.065Z,25.00
2019-04-03T05:58:04.134Z,21.40
2019-04-03T06:03:00.235Z,29.93
2019-04-03T06:07:56.247Z,33.00
2019-04-03T06:12:52.163Z,26.47
2019-04-03T06:17:50.319Z,35.83
2019-04-03T06:22:45.909Z,28.30
2019-04-03T06:27:45.475Z,38.27
2019-04-03T06:32:40.184Z,24.93
2019-04-03T06:37:36.115Z,38.90
2019-04-03T06:42:32.037Z,48.77
2019-04-03T06:47:27.955Z,44.37
2019-04-03T06:52:24.048Z,46.83
2019-04-03T06:57:20.002Z,50.07
2019-04-03T07:02:15.921Z,50.63
2019-04-03T07:07:11.841Z,51.33
2019-04-03T07:12:07.760Z,51.33
2019-04-03T07:17:05.872Z,50.77
2019-04-03T07:22:01.510Z,47.07
2019-04-03T07:26:57.430Z,49.03
2019-04-03T07:31:55.147Z,47.90
2019-04-03T07:36:51.219Z,51.10
2019-04-03T07:41:47.321Z,52.37
2019-04-03T07:46:43.583Z,50.73
2019-04-03T07:51:39.634Z,44.00
2019-04-03T07:56:35.563Z,44.90
2019-04-03T08:01:31.501Z,37.13
2019-04-03T08:06:27.428Z,36.70
2019-04-03T08:11:23.346Z,32.97
2019-04-03T08:16:19.488Z,40.77
2019-04-03T08:21:17.555Z,36.43
2019-04-03T08:26:14.527Z,37.50
2019-04-03T08:31:11.869Z,40.60
2019-04-03T08:36:22.561Z,45.63
2019-04-03T08:41:08.019Z,37.60
2019-04-03T08:46:04.019Z,47.60
2019-04-03T08:51:02.324Z,40.83
2019-04-03T08:55:58.071Z,42.53
2019-04-03T09:00:54.065Z,40.20
2019-04-03T09:05:50.957Z,35.23
2019-04-03T09:10:47.807Z,35.50
2019-04-03T09:15:44.640Z,38.50
2019-04-03T09:20:41.085Z,40.70
2019-04-03T09:25:38.615Z,41.37
2019-04-03T09:30:34.748Z,41.83
2019-04-03T09:35:32.425Z,33.03
2019-04-03T09:40:28.682Z,34.57
2019-04-03T09:45:26.082Z,26.53
2019-04-03T09:50:23.018Z,20.80
2019-04-03T09:55:19.149Z,19.43
2019-04-03T10:00:36.857Z,22.80
2019-04-03T10:05:32.893Z,27.73
2019-04-03T10:10:29.055Z,9.60
2019-04-03T10:15:24.993Z,11.90
2019-04-03T10:25:45.295Z,22.90
2019-04-03T10:30:41.258Z,19.40
2019-04-03T10:35:39.328Z,15.73
2019-04-03T10:40:35.415Z,19.83
2019-04-03T10:45:33.013Z,14.63
2019-04-03T10:50:28.936Z,15.77
2019-04-03T10:55:25.845Z,17.47
2019-04-03T11:00:24.633Z,18.90
2019-04-03T11:05:20.688Z,28.57
2019-04-03T11:10:16.735Z,17.30
2019-04-03T11:15:54.673Z,18.60
2019-04-03T11:20:51.067Z,12.17
2019-04-03T11:25:48.473Z,24.20
2019-04-03T11:30:44.400Z,21.77
2019-04-03T11:36:24.793Z,25.10
2019-04-03T11:41:22.731Z,26.00
2019-04-03T11:46:17.676Z,24.90
2019-04-03T11:51:13.595Z,24.50
2019-04-03T11:56:12.367Z,22.50
2019-04-03T12:06:11.360Z,32.70
2019-04-03T12:11:07.534Z,27.60
2019-04-03T12:16:26.228Z,31.43
2019-04-03T12:21:22.815Z,27.00
2019-04-03T12:26:20.794Z,28.40
2019-04-03T12:31:16.626Z,34.33
2019-04-03T12:36:13.509Z,23.27
2019-04-03T12:41:10.365Z,25.40
2019-04-03T12:46:07.327Z,28.50
2019-04-03T12:51:05.683Z,25.73
2019-04-03T12:56:03.951Z,24.87
2019-04-03T13:01:21.920Z,26.90
2019-04-03T13:06:20.642Z,22.77
2019-04-03T13:11:58.546Z,25.60
2019-04-03T13:16:54.481Z,16.03
2019-04-03T13:21:50.533Z,13.63
2019-04-03T13:26:46.470Z,17.97
2019-04-03T13:31:44.472Z,16.13
2019-04-03T13:36:40.330Z,14.80
2019-04-03T13:41:36.255Z,12.33
2019-04-03T13:46:32.575Z,13.20
2019-04-03T13:51:29.056Z,14.17
2019-04-03T13:56:27.606Z,13.23
2019-04-03T14:01:27.553Z,21.23
2019-04-03T14:06:22.335Z,12.53
2019-04-03T14:11:18.464Z,11.13
2019-04-03T14:16:21.711Z,15.87
2019-04-03T14:21:14.181Z,11.17
2019-04-03T14:26:12.989Z,5.90
2019-04-03T14:31:50.093Z,6.13
2019-04-03T14:36:46.132Z,6.13
2019-04-03T14:41:42.095Z,7.13
2019-04-03T14:46:38.102Z,5.83
2019-04-03T14:51:34.213Z,6.13
2019-04-03T14:56:33.262Z,6.77
2019-04-03T15:01:28.775Z,7.17
2019-04-03T15:06:24.708Z,9.83
2019-04-03T15:11:21.981Z,8.93
2019-04-03T15:16:19.566Z,10.77
2019-04-03T15:26:21.754Z,11.00
2019-04-03T15:37:14.151Z,9.93
2019-04-03T15:42:32.360Z,8.33
2019-04-03T15:47:36.568Z,11.10
2019-04-03T15:52:28.386Z,8.90
2019-04-03T15:57:25.458Z,9.70
2019-04-03T16:02:21.593Z,10.03
2019-04-03T16:07:18.495Z,13.70
2019-04-03T16:12:14.681Z,8.07
2019-04-03T16:17:11.243Z,10.93
2019-04-03T16:22:07.270Z,15.10
2019-04-03T16:27:03.370Z,11.00
2019-04-03T16:31:59.552Z,16.23
2019-04-03T16:36:56.633Z,12.93
2019-04-03T16:41:53.842Z,17.03
2019-04-03T16:46:49.797Z,11.33
2019-04-03T16:51:46.992Z,11.20
2019-04-03T16:56:43.222Z,15.43
2019-04-03T17:01:39.621Z,13.80
2019-04-03T17:06:36.647Z,14.83
2019-04-03T17:11:32.670Z,12.53
2019-04-03T17:16:28.609Z,11.93
2019-04-03T17:21:27.306Z,14.10
2019-04-03T17:26:22.634Z,10.73
2019-04-03T17:31:20.029Z,14.23
2019-04-03T17:36:19.171Z,12.47
2019-04-03T17:41:14.377Z,13.60
2019-04-03T17:46:10.392Z,14.17
2019-04-03T17:51:06.315Z,13.83
2019-04-03T17:56:02.522Z,20.70
2019-04-03T18:01:01.062Z,17.07
2019-04-03T18:06:03.587Z,19.27
2019-04-03T18:16:18.610Z,22.47
2019-04-03T18:21:15.148Z,14.23
2019-04-03T18:26:12.606Z,14.03
2019-04-03T18:31:08.545Z,16.60
2019-04-03T18:36:04.501Z,14.10
2019-04-03T18:41:00.436Z,11.00
2019-04-03T18:46:00.008Z,18.77
2019-04-03T18:50:54.344Z,19.97
2019-04-03T18:55:50.261Z,15.60
2019-04-03T19:00:46.190Z,17.87
2019-04-03T19:05:42.904Z,19.47
2019-04-03T19:10:39.335Z,22.03
2019-04-03T19:15:35.255Z,17.43
2019-04-03T19:20:31.184Z,20.53
2019-04-03T19:25:29.654Z,19.10
2019-04-03T19:30:28.433Z,12.23
2019-04-03T19:35:23.579Z,14.53
2019-04-03T19:40:19.567Z,12.00
2019-04-03T19:45:15.686Z,15.10
2019-04-03T19:50:11.847Z,10.27
2019-04-03T19:55:19.436Z,5.27
2019-04-03T20:00:15.756Z,4.40
2019-04-03T20:05:12.514Z,4.23
2019-04-03T20:10:08.684Z,4.23
2019-04-03T20:15:05.809Z,3.80
2019-04-03T20:20:03.827Z,6.87
2019-04-03T20:25:00.747Z,5.77
2019-04-03T20:29:56.797Z,4.50
2019-04-03T20:34:52.806Z,3.97
2019-04-03T20:39:48.766Z,4.83
2019-04-03T20:44:47.920Z,5.27
2019-04-03T20:49:43.841Z,10.70
2019-04-03T20:54:41.224Z,7.77
2019-04-03T20:59:37.250Z,7.03
2019-04-03T21:04:33.269Z,10.23
2019-04-03T21:09:30.421Z,14.87
2019-04-03T21:14:26.663Z,9.57
2019-04-03T21:19:22.579Z,13.53
2019-04-03T21:24:23.764Z,12.40
2019-04-03T21:29:19.807Z,9.60
2019-04-03T21:34:15.731Z,12.10
2019-04-03T21:39:13.006Z,11.77
2019-04-03T21:44:09.709Z,11.17
2019-04-03T21:49:05.710Z,11.27
2019-04-03T21:59:19.020Z,9.57
2019-04-03T22:04:14.940Z,7.90
2019-04-03T22:09:11.765Z,45.40
2019-04-03T22:14:10.698Z,12.37
2019-04-03T22:19:05.808Z,13.23
2019-04-03T22:24:08.208Z,12.57
2019-04-03T22:29:04.330Z,19.97
2019-04-03T22:34:00.243Z,12.50
2019-04-03T22:38:56.159Z,15.17
2019-04-03T22:43:52.070Z,13.60
2019-04-03T22:48:47.987Z,11.43
2019-04-03T22:53:43.933Z,11.87
2019-04-03T22:58:39.931Z,12.87
2019-04-03T23:03:35.856Z,17.30
2019-04-03T23:08:32.680Z,12.23
2019-04-03T23:13:28.688Z,13.37
2019-04-03T23:18:24.736Z,17.37
2019-04-03T23:23:20.640Z,14.87
2019-04-03T23:28:16.560Z,12.60
2019-04-03T23:33:12.569Z,18.17
2019-04-03T23:38:08.487Z,10.33
2019-04-03T23:43:04.480Z,12.53
2019-04-03T23:48:00.357Z,13.50
2019-04-03T23:52:56.375Z,11.07
2019-04-03T23:57:52.319Z,14.50
